^^
Meteo Knjazevac Station Historical Data
Daily Summary for September 24, 2022 Units:  Both    English   Metric
Daily Weekly Monthly Yearly Custom
  High: Low: Average:
Temperature: 43.2 °F /  6.2 °C 41.4 °F /  5.2 °C 42.3 °F /  5.7 °C
Dew Point: 42.9 °F /  6.1 °C 41.1 °F /  5.1 °C 42 °F /  5.6 °C
Humidity: 99% 99% 99%
Wind Speed: 9.1mph /  14.6km/h - 4.6mph /  7.4km/h
Wind Gust: 12mph /  19.3km/h - -
Wind- - South
Pressure: 29.81 in /  1009.4 hPa 29.74 in /  1007 hPa -
Precipitation: 0.00 in /  0 mm    
Historical Graphs
 
 
Tabular Data for September 24, 2022
Time Temperature Dew Point Pressure Wind Wind Speed Wind Gust Humidity Rainfall Rate (Hourly) solar Conditions
00:04 42.2 °F /  5.7 °C 41.9 °F /  5.5 °C 29.74in /  1007hPa SSE 1.2mph /  1.9km/h 1mph /  1.6km/h 99% 0.00in /  0mm 0 W/m2
00:09 42.2 °F /  5.7 °C 41.9 °F /  5.5 °C 29.74in /  1007hPa SSW 1.1mph /  1.8km/h 2mph /  3.2km/h 99% 0.00in /  0mm 0 W/m2
00:14 42.1 °F /  5.6 °C 41.8 °F /  5.4 °C 29.74in /  1007hPa ENE 2mph /  3.2km/h 1.3mph /  2.1km/h 99% 0.00in /  0mm 0 W/m2
00:19 42.1 °F /  5.6 °C 41.8 °F /  5.4 °C 29.74in /  1007hPa East 0.9mph /  1.4km/h 2mph /  3.2km/h 99% 0.00in /  0mm 0 W/m2
00:24 42.1 °F /  5.6 °C 41.8 °F /  5.4 °C 29.74in /  1007hPa NNE 1.1mph /  1.8km/h 2mph /  3.2km/h 99% 0.00in /  0mm 0 W/m2
00:29 42.1 °F /  5.6 °C 41.8 °F /  5.4 °C 29.74in /  1007hPa NNW 1.2mph /  1.9km/h 2mph /  3.2km/h 99% 0.00in /  0mm 0 W/m2
00:34 42.1 °F /  5.6 °C 41.8 °F /  5.4 °C 29.74in /  1007hPa WSW 1mph /  1.6km/h 2mph /  3.2km/h 99% 0.00in /  0mm 0 W/m2
00:39 42.1 °F /  5.6 °C 41.8 °F /  5.4 °C 29.74in /  1007hPa WSW 0.4mph /  0.6km/h 1mph /  1.6km/h 99% 0.00in /  0mm 0 W/m2
00:44 42.1 °F /  5.6 °C 41.8 °F /  5.4 °C 29.74in /  1007hPa WSW 0.6mph /  1km/h 1mph /  1.6km/h 99% 0.00in /  0mm 0 W/m2
00:49 42.3 °F /  5.7 °C 42 °F /  5.6 °C 29.74in /  1007hPa WNW 1.6mph /  2.6km/h 1.3mph /  2.1km/h 99% 0.00in /  0mm 0 W/m2
00:54 42.3 °F /  5.7 °C 42 °F /  5.6 °C 29.74in /  1007hPa NNW 1.1mph /  1.8km/h 2mph /  3.2km/h 99% 0.00in /  0mm 0 W/m2
00:59 42.3 °F /  5.7 °C 42 °F /  5.6 °C 29.75in /  1007.3hPa NNW 1.1mph /  1.8km/h 2mph /  3.2km/h 99% 0.00in /  0mm 0 W/m2
01:04 42.3 °F /  5.7 °C 42 °F /  5.6 °C 29.74in /  1007hPa Calm   2mph /  3.2km/h 99% 0.00in /  0mm 0 W/m2
01:09 42.3 °F /  5.7 °C 42.1 °F /  5.6 °C 29.74in /  1007hPa North 1.2mph /  1.9km/h 1.8mph /  2.9km/h 99% 0.00in /  0mm 0 W/m2
01:14 42.4 °F /  5.8 °C 42.2 °F /  5.7 °C 29.75in /  1007.3hPa North 3.1mph /  5km/h 2.5mph /  4km/h 99% 0.00in /  0mm 0 W/m2
01:19 42.4 °F /  5.8 °C 42.2 °F /  5.7 °C 29.75in /  1007.3hPa NNE 3.2mph /  5.1km/h 3mph /  4.8km/h 99% 0.00in /  0mm 0 W/m2
01:24 42.5 °F /  5.8 °C 42.3 °F /  5.7 °C 29.75in /  1007.3hPa NNE 2.9mph /  4.7km/h 3mph /  4.8km/h 99% 0.00in /  0mm 0 W/m2
01:29 42.6 °F /  5.9 °C 42.4 °F /  5.8 °C 29.75in /  1007.3hPa NNE 3mph /  4.8km/h 3mph /  4.8km/h 99% 0.00in /  0mm 0 W/m2
01:34 42.6 °F /  5.9 °C 42.4 °F /  5.8 °C 29.75in /  1007.3hPa NNE 2.1mph /  3.4km/h 3mph /  4.8km/h 99% 0.00in /  0mm 0 W/m2
01:39 42.6 °F /  5.9 °C 42.4 °F /  5.8 °C 29.75in /  1007.3hPa North 0.6mph /  1km/h 3mph /  4.8km/h 99% 0.00in /  0mm 0 W/m2
01:44 42.6 °F /  5.9 °C 42.4 °F /  5.8 °C 29.75in /  1007.3hPa NNE 1.8mph /  2.9km/h 2mph /  3.2km/h 99% 0.00in /  0mm 0 W/m2
01:49 42.6 °F /  5.9 °C 42.4 °F /  5.8 °C 29.75in /  1007.3hPa NNE 0.6mph /  1km/h 3mph /  4.8km/h 99% 0.00in /  0mm 0 W/m2
01:54 42.8 °F /  6 °C 42.5 °F /  5.8 °C 29.75in /  1007.3hPa NNE 3.1mph /  5km/h 2.9mph /  4.7km/h 99% 0.00in /  0mm 0 W/m2
01:59 42.8 °F /  6 °C 42.5 °F /  5.8 °C 29.75in /  1007.3hPa NNE 3mph /  4.8km/h 3mph /  4.8km/h 99% 0.00in /  0mm 0 W/m2
02:04 42.8 °F /  6 °C 42.5 °F /  5.8 °C 29.76in /  1007.7hPa NNE 2mph /  3.2km/h 4mph /  6.4km/h 99% 0.00in /  0mm 0 W/m2
02:09 42.8 °F /  6 °C 42.5 °F /  5.8 °C 29.76in /  1007.7hPa NNE 1mph /  1.6km/h 4mph /  6.4km/h 99% 0.00in /  0mm 0 W/m2
02:14 42.8 °F /  6 °C 42.5 °F /  5.8 °C 29.76in /  1007.7hPa North 2.2mph /  3.5km/h 2mph /  3.2km/h 99% 0.00in /  0mm 0 W/m2
02:19 42.8 °F /  6 °C 42.5 °F /  5.8 °C 29.76in /  1007.7hPa NW 4.7mph /  7.6km/h 5.1mph /  8.2km/h 99% 0.00in /  0mm 0 W/m2
02:24 42.9 °F /  6.1 °C 42.6 °F /  5.9 °C 29.76in /  1007.7hPa WSW 8.3mph /  13.4km/h 7mph /  11.3km/h 99% 0.00in /  0mm 0 W/m2
02:29 43.1 °F /  6.2 °C 42.8 °F /  6 °C 29.77in /  1008hPa SW 7.2mph /  11.6km/h 9mph /  14.5km/h 99% 0.00in /  0mm 0 W/m2
02:34 43.2 °F /  6.2 °C 42.9 °F /  6.1 °C 29.77in /  1008hPa SW 6.2mph /  10km/h 7mph /  11.3km/h 99% 0.00in /  0mm 0 W/m2
02:39 43.2 °F /  6.2 °C 42.9 °F /  6.1 °C 29.77in /  1008hPa SW 6.8mph /  10.9km/h 7mph /  11.3km/h 99% 0.00in /  0mm 0 W/m2
02:44 43.2 °F /  6.2 °C 42.9 °F /  6.1 °C 29.77in /  1008hPa SW 6.7mph /  10.8km/h 8mph /  12.9km/h 99% 0.00in /  0mm 0 W/m2
02:49 43.2 °F /  6.2 °C 42.9 °F /  6.1 °C 29.77in /  1008hPa SW 6.6mph /  10.6km/h 8mph /  12.9km/h 99% 0.00in /  0mm 0 W/m2
02:54 43 °F /  6.1 °C 42.7 °F /  5.9 °C 29.77in /  1008hPa SW 8.3mph /  13.4km/h 9mph /  14.5km/h 99% 0.00in /  0mm 0 W/m2
02:59 43 °F /  6.1 °C 42.7 °F /  5.9 °C 29.77in /  1008hPa SW 7.7mph /  12.4km/h 10mph /  16.1km/h 99% 0.00in /  0mm 0 W/m2
03:04 42.9 °F /  6.1 °C 42.6 °F /  5.9 °C 29.78in /  1008.4hPa SW 8.6mph /  13.8km/h 10mph /  16.1km/h 99% 0.00in /  0mm 0 W/m2
03:09 42.8 °F /  6 °C 42.5 °F /  5.8 °C 29.78in /  1008.4hPa SW 7mph /  11.3km/h 9mph /  14.5km/h 99% 0.00in /  0mm 0 W/m2
03:14 42.7 °F /  5.9 °C 42.4 °F /  5.8 °C 29.78in /  1008.4hPa SW 5.5mph /  8.9km/h 7mph /  11.3km/h 99% 0.00in /  0mm 0 W/m2
03:19 42.6 °F /  5.9 °C 42.4 °F /  5.8 °C 29.78in /  1008.4hPa WSW 7.2mph /  11.6km/h 6mph /  9.7km/h 99% 0.00in /  0mm 0 W/m2
03:24 42.5 °F /  5.8 °C 42.3 °F /  5.7 °C 29.78in /  1008.4hPa SW 7.6mph /  12.2km/h 8mph /  12.9km/h 99% 0.00in /  0mm 0 W/m2
03:29 42.4 °F /  5.8 °C 42.2 °F /  5.7 °C 29.78in /  1008.4hPa SW 5.2mph /  8.4km/h 8mph /  12.9km/h 99% 0.00in /  0mm 0 W/m2
03:34 42.4 °F /  5.8 °C 42.2 °F /  5.7 °C 29.78in /  1008.4hPa WSW 5.9mph /  9.5km/h 6mph /  9.7km/h 99% 0.00in /  0mm 0 W/m2
03:39 42.4 °F /  5.8 °C 42.2 °F /  5.7 °C 29.78in /  1008.4hPa SW 6.1mph /  9.8km/h 7mph /  11.3km/h 99% 0.00in /  0mm 0 W/m2
03:44 42.3 °F /  5.7 °C 42 °F /  5.6 °C 29.78in /  1008.4hPa SW 6mph /  9.7km/h 7mph /  11.3km/h 99% 0.00in /  0mm 0 W/m2
03:49 42.3 °F /  5.7 °C 42 °F /  5.6 °C 29.79in /  1008.7hPa WSW 7.8mph /  12.6km/h 6mph /  9.7km/h 99% 0.00in /  0mm 0 W/m2
03:54 42.1 °F /  5.6 °C 41.8 °F /  5.4 °C 29.79in /  1008.7hPa WSW 6.9mph /  11.1km/h 9mph /  14.5km/h 99% 0.00in /  0mm 0 W/m2
03:59 42.1 °F /  5.6 °C 41.8 °F /  5.4 °C 29.79in /  1008.7hPa SW 7.8mph /  12.6km/h 8mph /  12.9km/h 99% 0.00in /  0mm 0 W/m2
04:04 41.9 °F /  5.5 °C 41.6 °F /  5.3 °C 29.79in /  1008.7hPa SW 7.8mph /  12.6km/h 9mph /  14.5km/h 99% 0.00in /  0mm 0 W/m2
04:09 41.9 °F /  5.5 °C 41.6 °F /  5.3 °C 29.79in /  1008.7hPa SW 9.1mph /  14.6km/h 12mph /  19.3km/h 99% 0.00in /  0mm 0 W/m2
04:14 41.8 °F /  5.4 °C 41.6 °F /  5.3 °C 29.79in /  1008.7hPa SW 8.7mph /  14km/h 10mph /  16.1km/h 99% 0.00in /  0mm 0 W/m2
04:19 41.7 °F /  5.4 °C 41.5 °F /  5.3 °C 29.79in /  1008.7hPa SW 7.5mph /  12.1km/h 9mph /  14.5km/h 99% 0.00in /  0mm 0 W/m2
04:24 41.6 °F /  5.3 °C 41.3 °F /  5.2 °C 29.79in /  1008.7hPa SW 8.2mph /  13.2km/h 9mph /  14.5km/h 99% 0.00in /  0mm 0 W/m2
04:29 41.5 °F /  5.3 °C 41.3 °F /  5.2 °C 29.80in /  1009hPa SW 7.9mph /  12.7km/h 9mph /  14.5km/h 99% 0.00in /  0mm 0 W/m2
04:34 41.5 °F /  5.3 °C 41.3 °F /  5.2 °C 29.80in /  1009hPa SW 6.4mph /  10.3km/h 9mph /  14.5km/h 99% 0.00in /  0mm 0 W/m2
04:39 41.5 °F /  5.3 °C 41.3 °F /  5.2 °C 29.80in /  1009hPa SW 7.5mph /  12.1km/h 7mph /  11.3km/h 99% 0.00in /  0mm 0 W/m2
04:44 41.4 °F /  5.2 °C 41.2 °F /  5.1 °C 29.80in /  1009hPa SW 8mph /  12.9km/h 8mph /  12.9km/h 99% 0.00in /  0mm 0 W/m2
04:49 41.4 °F /  5.2 °C 41.1 °F /  5.1 °C 29.80in /  1009hPa SW 7.2mph /  11.6km/h 9mph /  14.5km/h 99% 0.00in /  0mm 0 W/m2
04:54 41.5 °F /  5.3 °C 41.2 °F /  5.1 °C 29.80in /  1009hPa SW 5.9mph /  9.5km/h 8mph /  12.9km/h 99% 0.00in /  0mm 0 W/m2
04:59 41.4 °F /  5.2 °C 41.1 °F /  5.1 °C 29.81in /  1009.4hPa SW 5.7mph /  9.2km/h 7mph /  11.3km/h 99% 0.00in /  0mm 0 W/m2
05:04 41.4 °F /  5.2 °C 41.2 °F /  5.1 °C 29.81in /  1009.4hPa SW 5.4mph /  8.7km/h 6mph /  9.7km/h 99% 0.00in /  0mm 0 W/m2
05:09 41.4 °F /  5.2 °C 41.1 °F /  5.1 °C 29.81in /  1009.4hPa SW 5.6mph /  9km/h 7mph /  11.3km/h 99% 0.00in /  0mm 0 W/m2
05:14 41.5 °F /  5.3 °C 41.2 °F /  5.1 °C 29.81in /  1009.4hPa SW 4.4mph /  7.1km/h 6mph /  9.7km/h 99% 0.00in /  0mm 0 W/m2
05:19 41.5 °F /  5.3 °C 41.3 °F /  5.2 °C 29.81in /  1009.4hPa SW 3.8mph /  6.1km/h 5mph /  8km/h 99% 0.00in /  0mm 0 W/m2
05:24 41.5 °F /  5.3 °C 41.3 °F /  5.2 °C 29.81in /  1009.4hPa SW 3.8mph /  6.1km/h 5mph /  8km/h 99% 0.00in /  0mm 0 W/m2
05:29 41.5 °F /  5.3 °C 41.3 °F /  5.2 °C 29.81in /  1009.4hPa SW 4.8mph /  7.7km/h 5mph /  8km/h 99% 0.00in /  0mm 0 W/m2
Knjazevac, Serbia
Compliments of Weather Underground - 2 mb